sensor_id;sensor_type;location;lat;lon;timestamp;temperature;humidity
19483;DHT22;9882;51.166;6.992;2023-08-07T00:02:26;13.50;99.90
19483;DHT22;9882;51.166;6.992;2023-08-07T00:04:55;13.70;99.90
19483;DHT22;9882;51.166;6.992;2023-08-07T00:07:26;13.40;99.90
19483;DHT22;9882;51.166;6.992;2023-08-07T00:09:55;13.50;99.90
19483;DHT22;9882;51.166;6.992;2023-08-07T00:12:27;13.70;99.90
19483;DHT22;9882;51.166;6.992;2023-08-07T00:14:57;13.50;99.90
19483;DHT22;9882;51.166;6.992;2023-08-07T00:17:32;13.60;99.90
19483;DHT22;9882;51.166;6.992;2023-08-07T00:20:04;13.60;99.90
19483;DHT22;9882;51.166;6.992;2023-08-07T00:22:35;13.60;99.90
19483;DHT22;9882;51.166;6.992;2023-08-07T00:25:05;13.60;99.90
19483;DHT22;9882;51.166;6.992;2023-08-07T00:34:30;13.70;99.90
19483;DHT22;9882;51.166;6.992;2023-08-07T01:55:07;13.50;99.90
19483;DHT22;9882;51.166;6.992;2023-08-07T01:58:27;13.40;99.90
19483;DHT22;9882;51.166;6.992;2023-08-07T02:00:59;13.60;99.90
19483;DHT22;9882;51.166;6.992;2023-08-07T02:03:38;13.50;99.90
19483;DHT22;9882;51.166;6.992;2023-08-07T02:06:11;13.60;99.90
19483;DHT22;9882;51.166;6.992;2023-08-07T02:08:40;13.50;99.90
19483;DHT22;9882;51.166;6.992;2023-08-07T02:11:11;13.60;99.90
19483;DHT22;9882;51.166;6.992;2023-08-07T02:13:41;13.60;99.90
19483;DHT22;9882;51.166;6.992;2023-08-07T02:16:10;13.70;99.90
19483;DHT22;9882;51.166;6.992;2023-08-07T02:18:39;13.70;99.90
19483;DHT22;9882;51.166;6.992;2023-08-07T02:21:08;13.50;99.90
19483;DHT22;9882;51.166;6.992;2023-08-07T02:23:39;13.60;99.90
19483;DHT22;9882;51.166;6.992;2023-08-07T02:26:10;13.70;99.90
19483;DHT22;9882;51.166;6.992;2023-08-07T02:28:39;13.80;99.90
19483;DHT22;9882;51.166;6.992;2023-08-07T02:31:08;13.70;99.90
19483;DHT22;9882;51.166;6.992;2023-08-07T02:33:37;13.60;99.90
19483;DHT22;9882;51.166;6.992;2023-08-07T02:36:06;13.60;99.90
19483;DHT22;9882;51.166;6.992;2023-08-07T02:38:35;13.70;99.90
19483;DHT22;9882;51.166;6.992;2023-08-07T02:41:05;13.60;99.90
19483;DHT22;9882;51.166;6.992;2023-08-07T02:43:36;13.80;99.90
19483;DHT22;9882;51.166;6.992;2023-08-07T02:46:05;13.80;99.90
19483;DHT22;9882;51.166;6.992;2023-08-07T02:48:34;13.50;99.90
19483;DHT22;9882;51.166;6.992;2023-08-07T02:51:04;13.60;99.90
19483;DHT22;9882;51.166;6.992;2023-08-07T03:13:55;13.80;99.90
19483;DHT22;9882;51.166;6.992;2023-08-07T03:16:25;13.90;99.90
19483;DHT22;9882;51.166;6.992;2023-08-07T03:18:55;14.00;99.90
19483;DHT22;9882;51.166;6.992;2023-08-07T03:21:30;14.00;99.90
19483;DHT22;9882;51.166;6.992;2023-08-07T03:24:05;13.90;99.90
19483;DHT22;9882;51.166;6.992;2023-08-07T03:33:03;13.90;99.90
19483;DHT22;9882;51.166;6.992;2023-08-07T03:35:50;14.10;99.90
19483;DHT22;9882;51.166;6.992;2023-08-07T03:39:09;13.90;99.90
19483;DHT22;9882;51.166;6.992;2023-08-07T03:41:46;13.90;99.90
19483;DHT22;9882;51.166;6.992;2023-08-07T03:44:35;14.00;99.90
19483;DHT22;9882;51.166;6.992;2023-08-07T03:47:22;13.80;99.90
19483;DHT22;9882;51.166;6.992;2023-08-07T03:50:06;14.00;99.90
19483;DHT22;9882;51.166;6.992;2023-08-07T03:55:58;13.80;99.90
19483;DHT22;9882;51.166;6.992;2023-08-07T03:58:36;13.70;99.90
19483;DHT22;9882;51.166;6.992;2023-08-07T04:01:07;13.80;99.90
19483;DHT22;9882;51.166;6.992;2023-08-07T04:03:41;13.80;99.90
19483;DHT22;9882;51.166;6.992;2023-08-07T04:06:15;13.70;99.90
19483;DHT22;9882;51.166;6.992;2023-08-07T04:08:45;13.80;99.90
19483;DHT22;9882;51.166;6.992;2023-08-07T04:11:15;13.80;99.90
19483;DHT22;9882;51.166;6.992;2023-08-07T04:13:45;13.60;99.90
19483;DHT22;9882;51.166;6.992;2023-08-07T04:16:19;13.80;99.90
19483;DHT22;9882;51.166;6.992;2023-08-07T04:18:53;13.70;99.90
19483;DHT22;9882;51.166;6.992;2023-08-07T04:21:25;13.70;99.90
19483;DHT22;9882;51.166;6.992;2023-08-07T04:23:54;13.60;99.90
19483;DHT22;9882;51.166;6.992;2023-08-07T04:26:27;13.70;99.90
19483;DHT22;9882;51.166;6.992;2023-08-07T04:28:57;13.60;99.90
19483;DHT22;9882;51.166;6.992;2023-08-07T04:31:29;13.70;99.90
19483;DHT22;9882;51.166;6.992;2023-08-07T04:34:00;13.70;99.90
19483;DHT22;9882;51.166;6.992;2023-08-07T04:36:31;13.60;99.90
19483;DHT22;9882;51.166;6.992;2023-08-07T04:39:01;13.70;99.90
19483;DHT22;9882;51.166;6.992;2023-08-07T04:41:32;13.70;99.90
19483;DHT22;9882;51.166;6.992;2023-08-07T04:44:05;13.70;99.90
19483;DHT22;9882;51.166;6.992;2023-08-07T04:46:39;13.70;99.90
19483;DHT22;9882;51.166;6.992;2023-08-07T04:49:09;13.80;99.90
19483;DHT22;9882;51.166;6.992;2023-08-07T04:51:46;13.60;99.90
19483;DHT22;9882;51.166;6.992;2023-08-07T04:54:15;13.50;99.90
19483;DHT22;9882;51.166;6.992;2023-08-07T04:56:51;13.50;99.90
19483;DHT22;9882;51.166;6.992;2023-08-07T04:59:22;13.40;99.90
19483;DHT22;9882;51.166;6.992;2023-08-07T05:01:53;13.60;99.90
19483;DHT22;9882;51.166;6.992;2023-08-07T05:04:23;13.40;99.90
19483;DHT22;9882;51.166;6.992;2023-08-07T05:06:56;13.40;99.90
19483;DHT22;9882;51.166;6.992;2023-08-07T05:09:25;13.40;99.90
19483;DHT22;9882;51.166;6.992;2023-08-07T05:11:53;13.30;99.90
19483;DHT22;9882;51.166;6.992;2023-08-07T05:14:22;13.40;99.90
19483;DHT22;9882;51.166;6.992;2023-08-07T05:16:51;13.40;99.90
19483;DHT22;9882;51.166;6.992;2023-08-07T05:19:20;13.50;99.90
19483;DHT22;9882;51.166;6.992;2023-08-07T05:21:49;13.40;99.90
19483;DHT22;9882;51.166;6.992;2023-08-07T05:24:19;13.40;99.90
19483;DHT22;9882;51.166;6.992;2023-08-07T05:26:52;13.40;99.90
19483;DHT22;9882;51.166;6.992;2023-08-07T05:29:22;13.50;99.90
19483;DHT22;9882;51.166;6.992;2023-08-07T05:31:50;13.40;99.90
19483;DHT22;9882;51.166;6.992;2023-08-07T05:34:19;13.40;99.90
19483;DHT22;9882;51.166;6.992;2023-08-07T05:36:48;13.40;99.90
19483;DHT22;9882;51.166;6.992;2023-08-07T05:39:20;13.40;99.90
19483;DHT22;9882;51.166;6.992;2023-08-07T05:41:49;13.40;99.90
19483;DHT22;9882;51.166;6.992;2023-08-07T05:44:18;13.40;99.90
19483;DHT22;9882;51.166;6.992;2023-08-07T05:46:47;13.50;99.90
19483;DHT22;9882;51.166;6.992;2023-08-07T05:49:17;13.50;99.90
19483;DHT22;9882;51.166;6.992;2023-08-07T05:51:55;13.50;99.90
19483;DHT22;9882;51.166;6.992;2023-08-07T05:54:25;13.60;99.90
19483;DHT22;9882;51.166;6.992;2023-08-07T05:56:53;13.50;99.90
19483;DHT22;9882;51.166;6.992;2023-08-07T05:59:22;13.50;99.90
19483;DHT22;9882;51.166;6.992;2023-08-07T06:01:51;13.50;99.90
19483;DHT22;9882;51.166;6.992;2023-08-07T06:04:20;13.60;99.90
19483;DHT22;9882;51.166;6.992;2023-08-07T06:06:49;13.70;99.90
19483;DHT22;9882;51.166;6.992;2023-08-07T06:09:18;13.70;99.90
19483;DHT22;9882;51.166;6.992;2023-08-07T06:11:51;13.80;99.90
19483;DHT22;9882;51.166;6.992;2023-08-07T06:14:20;13.60;99.90
19483;DHT22;9882;51.166;6.992;2023-08-07T06:17:14;13.70;99.90
19483;DHT22;9882;51.166;6.992;2023-08-07T06:19:43;13.70;99.90
19483;DHT22;9882;51.166;6.992;2023-08-07T06:22:11;13.70;99.90
19483;DHT22;9882;51.166;6.992;2023-08-07T06:24:40;13.60;99.90
19483;DHT22;9882;51.166;6.992;2023-08-07T06:27:09;13.70;99.90
19483;DHT22;9882;51.166;6.992;2023-08-07T06:29:38;13.70;99.90
19483;DHT22;9882;51.166;6.992;2023-08-07T06:32:07;13.80;99.90
19483;DHT22;9882;51.166;6.992;2023-08-07T06:34:37;13.80;99.90
19483;DHT22;9882;51.166;6.992;2023-08-07T06:37:06;13.90;99.90
19483;DHT22;9882;51.166;6.992;2023-08-07T06:39:34;13.90;99.90
19483;DHT22;9882;51.166;6.992;2023-08-07T06:42:04;13.90;99.90
19483;DHT22;9882;51.166;6.992;2023-08-07T06:44:36;13.90;99.90
19483;DHT22;9882;51.166;6.992;2023-08-07T06:47:05;14.20;99.90
19483;DHT22;9882;51.166;6.992;2023-08-07T06:49:35;13.90;99.90
19483;DHT22;9882;51.166;6.992;2023-08-07T06:52:04;14.00;99.90
19483;DHT22;9882;51.166;6.992;2023-08-07T06:54:33;13.90;99.90
19483;DHT22;9882;51.166;6.992;2023-08-07T06:57:01;14.00;99.90
19483;DHT22;9882;51.166;6.992;2023-08-07T06:59:30;13.90;99.90
19483;DHT22;9882;51.166;6.992;2023-08-07T07:02:00;14.00;99.90
19483;DHT22;9882;51.166;6.992;2023-08-07T07:04:28;14.00;99.90
19483;DHT22;9882;51.166;6.992;2023-08-07T07:06:57;14.00;99.90
19483;DHT22;9882;51.166;6.992;2023-08-07T07:09:25;14.10;99.90
19483;DHT22;9882;51.166;6.992;2023-08-07T07:11:55;14.10;99.90
19483;DHT22;9882;51.166;6.992;2023-08-07T07:14:24;14.10;99.90
19483;DHT22;9882;51.166;6.992;2023-08-07T07:16:53;14.10;99.90
19483;DHT22;9882;51.166;6.992;2023-08-07T07:19:23;14.20;99.90
19483;DHT22;9882;51.166;6.992;2023-08-07T07:21:51;14.40;99.90
19483;DHT22;9882;51.166;6.992;2023-08-07T07:24:20;14.40;99.90
19483;DHT22;9882;51.166;6.992;2023-08-07T07:26:49;14.40;99.90
19483;DHT22;9882;51.166;6.992;2023-08-07T07:29:17;14.50;99.90
19483;DHT22;9882;51.166;6.992;2023-08-07T07:31:46;14.50;99.90
19483;DHT22;9882;51.166;6.992;2023-08-07T07:34:15;14.40;99.90
19483;DHT22;9882;51.166;6.992;2023-08-07T07:36:45;14.30;99.90
19483;DHT22;9882;51.166;6.992;2023-08-07T07:39:13;14.40;99.90
19483;DHT22;9882;51.166;6.992;2023-08-07T07:41:42;14.40;99.90
19483;DHT22;9882;51.166;6.992;2023-08-07T07:44:12;14.40;99.90
19483;DHT22;9882;51.166;6.992;2023-08-07T07:46:40;14.50;99.90
19483;DHT22;9882;51.166;6.992;2023-08-07T07:49:09;14.40;99.90
19483;DHT22;9882;51.166;6.992;2023-08-07T07:51:37;14.50;99.90
19483;DHT22;9882;51.166;6.992;2023-08-07T07:54:09;14.50;99.90
19483;DHT22;9882;51.166;6.992;2023-08-07T07:56:40;14.60;99.90
19483;DHT22;9882;51.166;6.992;2023-08-07T07:59:09;14.60;99.90
19483;DHT22;9882;51.166;6.992;2023-08-07T08:01:37;14.60;99.90
19483;DHT22;9882;51.166;6.992;2023-08-07T08:04:06;14.60;99.90
19483;DHT22;9882;51.166;6.992;2023-08-07T08:06:37;14.50;99.90
19483;DHT22;9882;51.166;6.992;2023-08-07T08:09:06;14.50;99.90
19483;DHT22;9882;51.166;6.992;2023-08-07T08:11:38;14.50;99.90
19483;DHT22;9882;51.166;6.992;2023-08-07T08:14:06;14.50;99.90
19483;DHT22;9882;51.166;6.992;2023-08-07T08:16:35;14.50;99.90
19483;DHT22;9882;51.166;6.992;2023-08-07T08:19:03;14.50;99.90
19483;DHT22;9882;51.166;6.992;2023-08-07T08:21:33;14.50;99.90
19483;DHT22;9882;51.166;6.992;2023-08-07T08:24:02;14.60;99.90
19483;DHT22;9882;51.166;6.992;2023-08-07T08:26:31;14.50;99.90
19483;DHT22;9882;51.166;6.992;2023-08-07T08:29:01;14.50;99.90
19483;DHT22;9882;51.166;6.992;2023-08-07T08:31:31;14.60;99.90
19483;DHT22;9882;51.166;6.992;2023-08-07T08:34:00;14.70;99.90
19483;DHT22;9882;51.166;6.992;2023-08-07T08:36:28;14.60;99.90
19483;DHT22;9882;51.166;6.992;2023-08-07T08:38:57;14.70;99.90
19483;DHT22;9882;51.166;6.992;2023-08-07T08:41:26;14.60;99.90
19483;DHT22;9882;51.166;6.992;2023-08-07T08:43:55;14.70;99.90
19483;DHT22;9882;51.166;6.992;2023-08-07T08:46:28;14.80;99.90
19483;DHT22;9882;51.166;6.992;2023-08-07T08:48:58;14.90;99.90
19483;DHT22;9882;51.166;6.992;2023-08-07T08:51:27;14.90;99.90
19483;DHT22;9882;51.166;6.992;2023-08-07T08:53:56;15.00;99.90
19483;DHT22;9882;51.166;6.992;2023-08-07T08:56:24;15.00;99.90
19483;DHT22;9882;51.166;6.992;2023-08-07T08:58:53;15.00;99.90
19483;DHT22;9882;51.166;6.992;2023-08-07T09:01:22;15.00;99.90
19483;DHT22;9882;51.166;6.992;2023-08-07T09:03:55;15.10;99.90
19483;DHT22;9882;51.166;6.992;2023-08-07T09:06:25;15.00;99.90
19483;DHT22;9882;51.166;6.992;2023-08-07T09:08:57;15.00;99.90
19483;DHT22;9882;51.166;6.992;2023-08-07T09:11:27;15.00;99.90
19483;DHT22;9882;51.166;6.992;2023-08-07T09:13:57;15.00;99.90
19483;DHT22;9882;51.166;6.992;2023-08-07T09:16:27;14.90;99.90
19483;DHT22;9882;51.166;6.992;2023-08-07T09:18:57;15.00;99.90
19483;DHT22;9882;51.166;6.992;2023-08-07T09:21:26;15.00;99.90
19483;DHT22;9882;51.166;6.992;2023-08-07T09:23:55;15.00;99.90
19483;DHT22;9882;51.166;6.992;2023-08-07T09:26:23;15.10;99.90
19483;DHT22;9882;51.166;6.992;2023-08-07T09:28:52;14.90;99.90
19483;DHT22;9882;51.166;6.992;2023-08-07T09:31:22;15.00;99.90
19483;DHT22;9882;51.166;6.992;2023-08-07T09:33:53;14.90;99.90
19483;DHT22;9882;51.166;6.992;2023-08-07T09:36:23;15.10;99.90
19483;DHT22;9882;51.166;6.992;2023-08-07T09:38:52;15.10;99.90
19483;DHT22;9882;51.166;6.992;2023-08-07T09:41:21;15.10;99.90
19483;DHT22;9882;51.166;6.992;2023-08-07T09:43:50;15.10;99.90
19483;DHT22;9882;51.166;6.992;2023-08-07T09:46:18;15.00;99.90
19483;DHT22;9882;51.166;6.992;2023-08-07T09:48:47;14.90;99.90
19483;DHT22;9882;51.166;6.992;2023-08-07T09:51:16;14.80;99.90
19483;DHT22;9882;51.166;6.992;2023-08-07T09:53:47;14.80;99.90
19483;DHT22;9882;51.166;6.992;2023-08-07T09:56:15;14.60;99.90
19483;DHT22;9882;51.166;6.992;2023-08-07T09:58:47;14.70;99.90
19483;DHT22;9882;51.166;6.992;2023-08-07T10:01:16;14.60;99.90
19483;DHT22;9882;51.166;6.992;2023-08-07T10:03:46;14.60;99.90
19483;DHT22;9882;51.166;6.992;2023-08-07T10:06:15;14.70;99.90
19483;DHT22;9882;51.166;6.992;2023-08-07T10:08:46;14.70;99.90
19483;DHT22;9882;51.166;6.992;2023-08-07T10:11:15;14.70;99.90
19483;DHT22;9882;51.166;6.992;2023-08-07T10:13:45;14.40;99.90
19483;DHT22;9882;51.166;6.992;2023-08-07T10:16:14;14.30;99.90
19483;DHT22;9882;51.166;6.992;2023-08-07T10:18:42;14.20;99.90
19483;DHT22;9882;51.166;6.992;2023-08-07T10:21:11;14.40;99.90
19483;DHT22;9882;51.166;6.992;2023-08-07T10:23:41;14.60;99.90
19483;DHT22;9882;51.166;6.992;2023-08-07T10:26:11;14.60;99.90
19483;DHT22;9882;51.166;6.992;2023-08-07T10:28:41;14.80;99.90
19483;DHT22;9882;51.166;6.992;2023-08-07T10:31:11;14.90;99.90
19483;DHT22;9882;51.166;6.992;2023-08-07T10:33:42;14.90;99.90
19483;DHT22;9882;51.166;6.992;2023-08-07T10:36:11;15.10;99.90
19483;DHT22;9882;51.166;6.992;2023-08-07T10:38:41;15.20;99.90
19483;DHT22;9882;51.166;6.992;2023-08-07T10:41:14;15.20;99.90
19483;DHT22;9882;51.166;6.992;2023-08-07T10:43:44;15.40;99.90
19483;DHT22;9882;51.166;6.992;2023-08-07T10:46:15;15.30;99.90
19483;DHT22;9882;51.166;6.992;2023-08-07T10:48:45;15.40;99.90
19483;DHT22;9882;51.166;6.992;2023-08-07T10:51:14;15.30;99.90
19483;DHT22;9882;51.166;6.992;2023-08-07T10:53:44;15.30;99.90
19483;DHT22;9882;51.166;6.992;2023-08-07T10:56:18;15.50;99.90
19483;DHT22;9882;51.166;6.992;2023-08-07T10:58:49;15.70;99.90
19483;DHT22;9882;51.166;6.992;2023-08-07T11:01:26;15.70;99.90
19483;DHT22;9882;51.166;6.992;2023-08-07T11:03:57;15.80;99.90
19483;DHT22;9882;51.166;6.992;2023-08-07T11:06:28;15.90;99.90
19483;DHT22;9882;51.166;6.992;2023-08-07T11:08:59;16.20;99.90
19483;DHT22;9882;51.166;6.992;2023-08-07T11:11:29;16.10;99.90
19483;DHT22;9882;51.166;6.992;2023-08-07T11:13:58;16.10;99.90
19483;DHT22;9882;51.166;6.992;2023-08-07T11:16:27;16.10;99.90
19483;DHT22;9882;51.166;6.992;2023-08-07T11:18:56;16.20;99.90
19483;DHT22;9882;51.166;6.992;2023-08-07T11:21:25;16.20;99.90
19483;DHT22;9882;51.166;6.992;2023-08-07T11:23:55;16.30;99.90
19483;DHT22;9882;51.166;6.992;2023-08-07T11:26:23;16.50;99.90
19483;DHT22;9882;51.166;6.992;2023-08-07T11:28:54;16.80;99.90
19483;DHT22;9882;51.166;6.992;2023-08-07T11:31:24;16.80;99.90
19483;DHT22;9882;51.166;6.992;2023-08-07T11:33:54;16.70;99.90
19483;DHT22;9882;51.166;6.992;2023-08-07T11:36:25;16.60;99.90
19483;DHT22;9882;51.166;6.992;2023-08-07T11:38:53;16.80;99.90
19483;DHT22;9882;51.166;6.992;2023-08-07T11:41:22;16.90;99.90
19483;DHT22;9882;51.166;6.992;2023-08-07T11:43:51;16.80;99.90
19483;DHT22;9882;51.166;6.992;2023-08-07T11:46:21;16.90;99.90
19483;DHT22;9882;51.166;6.992;2023-08-07T11:48:52;17.10;99.90
19483;DHT22;9882;51.166;6.992;2023-08-07T11:51:22;17.20;99.90
19483;DHT22;9882;51.166;6.992;2023-08-07T11:53:51;17.00;99.90
19483;DHT22;9882;51.166;6.992;2023-08-07T11:56:23;17.20;99.90
19483;DHT22;9882;51.166;6.992;2023-08-07T11:58:52;17.20;99.90
19483;DHT22;9882;51.166;6.992;2023-08-07T12:01:23;17.30;99.90
19483;DHT22;9882;51.166;6.992;2023-08-07T12:03:54;17.30;99.90
19483;DHT22;9882;51.166;6.992;2023-08-07T12:06:24;17.30;99.90
19483;DHT22;9882;51.166;6.992;2023-08-07T12:08:54;17.30;99.90
19483;DHT22;9882;51.166;6.992;2023-08-07T12:11:23;17.30;99.90
19483;DHT22;9882;51.166;6.992;2023-08-07T12:13:52;17.40;99.90
19483;DHT22;9882;51.166;6.992;2023-08-07T12:16:22;17.40;99.90
19483;DHT22;9882;51.166;6.992;2023-08-07T12:18:51;17.30;99.90
19483;DHT22;9882;51.166;6.992;2023-08-07T12:21:21;17.40;99.90
19483;DHT22;9882;51.166;6.992;2023-08-07T12:23:51;17.40;99.90
19483;DHT22;9882;51.166;6.992;2023-08-07T12:26:20;17.40;99.90
19483;DHT22;9882;51.166;6.992;2023-08-07T12:28:48;17.40;99.90
19483;DHT22;9882;51.166;6.992;2023-08-07T12:31:18;17.30;99.90
19483;DHT22;9882;51.166;6.992;2023-08-07T12:33:50;17.20;99.90
19483;DHT22;9882;51.166;6.992;2023-08-07T12:36:20;17.60;99.90
19483;DHT22;9882;51.166;6.992;2023-08-07T12:38:49;17.80;99.90
19483;DHT22;9882;51.166;6.992;2023-08-07T12:41:18;17.80;99.90
19483;DHT22;9882;51.166;6.992;2023-08-07T12:43:50;17.80;99.90
19483;DHT22;9882;51.166;6.992;2023-08-07T12:46:19;17.90;99.90
19483;DHT22;9882;51.166;6.992;2023-08-07T12:48:56;18.30;99.90
19483;DHT22;9882;51.166;6.992;2023-08-07T12:51:25;18.30;99.90
19483;DHT22;9882;51.166;6.992;2023-08-07T12:53:53;18.20;99.90
19483;DHT22;9882;51.166;6.992;2023-08-07T12:56:22;18.20;99.90
19483;DHT22;9882;51.166;6.992;2023-08-07T12:58:50;18.20;99.90
19483;DHT22;9882;51.166;6.992;2023-08-07T13:01:19;18.30;99.90
19483;DHT22;9882;51.166;6.992;2023-08-07T13:03:47;18.20;99.90
19483;DHT22;9882;51.166;6.992;2023-08-07T13:06:17;18.30;99.90
19483;DHT22;9882;51.166;6.992;2023-08-07T13:08:46;18.40;99.90
19483;DHT22;9882;51.166;6.992;2023-08-07T13:11:15;18.30;99.90
19483;DHT22;9882;51.166;6.992;2023-08-07T13:13:43;18.10;99.90
19483;DHT22;9882;51.166;6.992;2023-08-07T13:16:12;18.20;99.90
19483;DHT22;9882;51.166;6.992;2023-08-07T13:18:40;18.40;99.90
19483;DHT22;9882;51.166;6.992;2023-08-07T13:21:09;18.50;99.90
19483;DHT22;9882;51.166;6.992;2023-08-07T13:23:39;18.50;99.90
19483;DHT22;9882;51.166;6.992;2023-08-07T13:26:07;18.50;99.90
19483;DHT22;9882;51.166;6.992;2023-08-07T13:28:36;18.60;99.90
19483;DHT22;9882;51.166;6.992;2023-08-07T13:31:05;18.40;99.90
19483;DHT22;9882;51.166;6.992;2023-08-07T13:33:34;18.30;99.90
19483;DHT22;9882;51.166;6.992;2023-08-07T13:36:03;18.40;99.90
19483;DHT22;9882;51.166;6.992;2023-08-07T13:38:31;18.50;99.90
19483;DHT22;9882;51.166;6.992;2023-08-07T13:41:01;18.50;99.90
19483;DHT22;9882;51.166;6.992;2023-08-07T13:43:30;19.20;99.90
19483;DHT22;9882;51.166;6.992;2023-08-07T13:45:58;18.70;99.90
19483;DHT22;9882;51.166;6.992;2023-08-07T13:48:27;18.90;99.90
19483;DHT22;9882;51.166;6.992;2023-08-07T13:50:55;19.50;99.90
19483;DHT22;9882;51.166;6.992;2023-08-07T13:53:34;19.80;99.90
19483;DHT22;9882;51.166;6.992;2023-08-07T13:56:20;20.00;99.90
19483;DHT22;9882;51.166;6.992;2023-08-07T13:58:56;20.50;99.90
19483;DHT22;9882;51.166;6.992;2023-08-07T14:01:25;20.60;99.90
19483;DHT22;9882;51.166;6.992;2023-08-07T14:03:53;20.10;99.90
19483;DHT22;9882;51.166;6.992;2023-08-07T14:06:22;20.20;99.90
19483;DHT22;9882;51.166;6.992;2023-08-07T14:08:50;19.90;99.90
19483;DHT22;9882;51.166;6.992;2023-08-07T14:11:20;19.60;99.90
19483;DHT22;9882;51.166;6.992;2023-08-07T14:13:51;19.70;99.90
19483;DHT22;9882;51.166;6.992;2023-08-07T14:16:20;19.50;99.90
19483;DHT22;9882;51.166;6.992;2023-08-07T14:18:49;19.10;99.90
19483;DHT22;9882;51.166;6.992;2023-08-07T14:21:17;19.10;99.90
19483;DHT22;9882;51.166;6.992;2023-08-07T14:23:47;19.70;99.90
19483;DHT22;9882;51.166;6.992;2023-08-07T14:26:16;19.90;99.90
19483;DHT22;9882;51.166;6.992;2023-08-07T14:28:49;19.70;99.90
19483;DHT22;9882;51.166;6.992;2023-08-07T14:31:17;19.70;99.90
19483;DHT22;9882;51.166;6.992;2023-08-07T14:33:46;19.80;99.90
19483;DHT22;9882;51.166;6.992;2023-08-07T14:36:14;19.40;99.90
19483;DHT22;9882;51.166;6.992;2023-08-07T14:38:43;19.30;99.90
19483;DHT22;9882;51.166;6.992;2023-08-07T14:41:12;19.00;99.90
19483;DHT22;9882;51.166;6.992;2023-08-07T14:43:40;18.80;99.90
19483;DHT22;9882;51.166;6.992;2023-08-07T14:46:10;18.90;99.90
19483;DHT22;9882;51.166;6.992;2023-08-07T14:48:39;18.80;99.90
19483;DHT22;9882;51.166;6.992;2023-08-07T14:51:07;18.70;99.90
19483;DHT22;9882;51.166;6.992;2023-08-07T14:53:36;18.80;99.90
19483;DHT22;9882;51.166;6.992;2023-08-07T14:56:05;18.60;99.90
19483;DHT22;9882;51.166;6.992;2023-08-07T14:58:35;18.60;99.90
19483;DHT22;9882;51.166;6.992;2023-08-07T15:01:04;18.80;99.90
19483;DHT22;9882;51.166;6.992;2023-08-07T15:03:34;18.80;99.90
19483;DHT22;9882;51.166;6.992;2023-08-07T15:06:02;18.70;99.90
19483;DHT22;9882;51.166;6.992;2023-08-07T15:08:32;18.60;99.90
19483;DHT22;9882;51.166;6.992;2023-08-07T15:11:00;18.60;99.90
19483;DHT22;9882;51.166;6.992;2023-08-07T15:13:29;18.60;99.90
19483;DHT22;9882;51.166;6.992;2023-08-07T15:15:58;18.40;99.90
19483;DHT22;9882;51.166;6.992;2023-08-07T15:18:26;18.30;99.90
19483;DHT22;9882;51.166;6.992;2023-08-07T15:20:57;19.10;99.90
19483;DHT22;9882;51.166;6.992;2023-08-07T15:23:27;19.00;99.90
19483;DHT22;9882;51.166;6.992;2023-08-07T15:25:56;19.10;99.90
19483;DHT22;9882;51.166;6.992;2023-08-07T15:28:24;19.00;99.90
19483;DHT22;9882;51.166;6.992;2023-08-07T15:30:53;19.00;99.90
19483;DHT22;9882;51.166;6.992;2023-08-07T15:33:22;19.90;99.90
19483;DHT22;9882;51.166;6.992;2023-08-07T15:35:53;20.20;99.90
19483;DHT22;9882;51.166;6.992;2023-08-07T15:38:25;20.60;99.90
19483;DHT22;9882;51.166;6.992;2023-08-07T15:40:53;20.30;99.90
19483;DHT22;9882;51.166;6.992;2023-08-07T15:43:23;19.40;99.90
19483;DHT22;9882;51.166;6.992;2023-08-07T15:45:51;19.20;99.90
19483;DHT22;9882;51.166;6.992;2023-08-07T15:48:20;19.10;99.90
19483;DHT22;9882;51.166;6.992;2023-08-07T15:50:49;18.80;99.90
19483;DHT22;9882;51.166;6.992;2023-08-07T15:53:17;18.70;99.90
19483;DHT22;9882;51.166;6.992;2023-08-07T15:55:47;18.40;99.90
19483;DHT22;9882;51.166;6.992;2023-08-07T15:58:16;18.40;99.90
19483;DHT22;9882;51.166;6.992;2023-08-07T16:00:45;17.40;99.90
19483;DHT22;9882;51.166;6.992;2023-08-07T16:03:14;16.80;99.90
19483;DHT22;9882;51.166;6.992;2023-08-07T16:05:42;16.60;99.90
19483;DHT22;9882;51.166;6.992;2023-08-07T16:08:11;16.60;99.90
19483;DHT22;9882;51.166;6.992;2023-08-07T16:10:40;17.30;99.90
19483;DHT22;9882;51.166;6.992;2023-08-07T16:13:10;17.20;99.90
19483;DHT22;9882;51.166;6.992;2023-08-07T16:15:38;17.50;99.90
19483;DHT22;9882;51.166;6.992;2023-08-07T16:18:08;17.90;99.90
19483;DHT22;9882;51.166;6.992;2023-08-07T16:20:37;18.50;99.90
19483;DHT22;9882;51.166;6.992;2023-08-07T16:23:06;18.50;99.90
19483;DHT22;9882;51.166;6.992;2023-08-07T16:25:35;18.40;99.90
19483;DHT22;9882;51.166;6.992;2023-08-07T16:28:04;18.30;99.90
19483;DHT22;9882;51.166;6.992;2023-08-07T16:30:35;18.20;99.90
19483;DHT22;9882;51.166;6.992;2023-08-07T16:33:04;18.40;99.90
19483;DHT22;9882;51.166;6.992;2023-08-07T16:35:33;18.00;99.90
19483;DHT22;9882;51.166;6.992;2023-08-07T16:38:01;18.40;99.90
19483;DHT22;9882;51.166;6.992;2023-08-07T16:40:30;18.50;99.90
19483;DHT22;9882;51.166;6.992;2023-08-07T16:43:02;19.30;99.90
19483;DHT22;9882;51.166;6.992;2023-08-07T16:45:31;19.50;99.90
19483;DHT22;9882;51.166;6.992;2023-08-07T16:48:01;18.90;99.90
19483;DHT22;9882;51.166;6.992;2023-08-07T16:50:29;18.50;99.90
19483;DHT22;9882;51.166;6.992;2023-08-07T16:52:58;18.40;99.90
19483;DHT22;9882;51.166;6.992;2023-08-07T16:55:27;18.90;99.90
19483;DHT22;9882;51.166;6.992;2023-08-07T16:57:55;19.40;99.90
19483;DHT22;9882;51.166;6.992;2023-08-07T17:00:24;19.60;99.90
19483;DHT22;9882;51.166;6.992;2023-08-07T17:02:52;19.50;99.90
19483;DHT22;9882;51.166;6.992;2023-08-07T17:05:23;19.80;99.90
19483;DHT22;9882;51.166;6.992;2023-08-07T17:07:52;20.10;99.90
19483;DHT22;9882;51.166;6.992;2023-08-07T17:10:20;19.60;99.90
19483;DHT22;9882;51.166;6.992;2023-08-07T17:12:49;19.90;99.90
19483;DHT22;9882;51.166;6.992;2023-08-07T17:15:17;20.30;99.90
19483;DHT22;9882;51.166;6.992;2023-08-07T17:17:46;20.30;99.90
19483;DHT22;9882;51.166;6.992;2023-08-07T17:20:15;19.50;99.90
19483;DHT22;9882;51.166;6.992;2023-08-07T17:22:45;19.40;99.90
19483;DHT22;9882;51.166;6.992;2023-08-07T17:25:14;19.00;99.90
19483;DHT22;9882;51.166;6.992;2023-08-07T17:27:42;18.90;99.90
19483;DHT22;9882;51.166;6.992;2023-08-07T17:30:11;18.90;99.90
19483;DHT22;9882;51.166;6.992;2023-08-07T17:32:40;18.70;99.90
19483;DHT22;9882;51.166;6.992;2023-08-07T17:35:08;18.80;99.90
19483;DHT22;9882;51.166;6.992;2023-08-07T17:37:37;18.50;99.90
19483;DHT22;9882;51.166;6.992;2023-08-07T17:40:08;18.30;99.90
19483;DHT22;9882;51.166;6.992;2023-08-07T17:42:37;18.20;99.90
19483;DHT22;9882;51.166;6.992;2023-08-07T17:45:06;18.40;99.90
19483;DHT22;9882;51.166;6.992;2023-08-07T17:47:35;18.30;99.90
19483;DHT22;9882;51.166;6.992;2023-08-07T17:50:04;18.50;99.90
19483;DHT22;9882;51.166;6.992;2023-08-07T17:52:38;18.70;99.90
19483;DHT22;9882;51.166;6.992;2023-08-07T17:55:08;18.10;99.90
19483;DHT22;9882;51.166;6.992;2023-08-07T17:57:38;18.20;99.90
19483;DHT22;9882;51.166;6.992;2023-08-07T18:00:08;17.80;99.90